Echo Valley, Pennsylvania
Current Conditions -  °F | °C
As of 12:58 PM on Thursday 29 Jan 2015 (Local Time) from KMUI Reporting Station
Few Clouds Few Clouds  
Wind Chill: 19°   Ceiling: Unl
Heat Index: 26°   Visibility: 10mi
Dew Point:   Wind: 6mph
Humidity: 45%   Direction: 60°ENE
Pressure: 30.17"   Gusts: NA
Location:  40.6079°N, 76.4334°W
Report Text: KMUI 291758Z AUTO 06005KT 10SM FEW080 M04/M14 A3017 RMK AO2 SLP228 T10361140 11036 21159 57038
Loading
Personal Weather Stations






























Interactive Weather Map New forecast layout! Learn more

10-Day Weather Forecast

Advertisements
Track Severe Weather on mobile